Time;durP1;ratioP1;P1;durP2;ratioP2;P2;SDS_P1;SDS_P2;PMS_P1;PMS_P2;Temp;Humidity;BMP_temperature;BMP_pressure;BME280_temperature;BME280_humidity;BME280_pressure;Samples;Min_cycle;Max_cycle;Signal;HPM_P1;HPM_P2
2023/12/05 00:01:51;;;;;;;6.97;3.75;;;1.50;99.90;;;0.52;100.00;96055.91;4991575;28;20037;-41
2023/12/05 00:04:17;;;;;;;8.07;3.83;;;1.50;99.90;;;0.53;100.00;96055.88;4993079;28;20210;-39
2023/12/05 00:06:43;;;;;;;7.88;4.15;;;1.50;99.90;;;0.54;100.00;96065.38;4992703;28;20068;-38
2023/12/05 00:09:08;;;;;;;6.75;3.65;;;1.50;99.90;;;0.52;100.00;96054.19;4991373;28;20034;-38
2023/12/05 00:11:34;;;;;;;5.97;4.05;;;1.50;99.90;;;0.57;100.00;96051.47;4990472;28;20037;-41
2023/12/05 00:14:00;;;;;;;6.40;3.78;;;1.60;99.90;;;0.59;100.00;96056.66;4994290;28;20045;-38
2023/12/05 00:16:27;;;;;;;5.80;3.58;;;1.60;99.90;;;0.60;100.00;96048.00;4992679;28;20471;-38
2023/12/05 00:18:52;;;;;;;7.45;4.10;;;1.60;99.90;;;0.63;100.00;96042.72;4993566;28;20033;-38
2023/12/05 00:21:18;;;;;;;6.10;4.07;;;1.60;99.90;;;0.58;100.00;96042.81;4992720;28;20073;-38
2023/12/05 00:23:44;;;;;;;8.68;4.22;;;1.60;99.90;;;0.57;100.00;96036.78;4990875;28;20124;-40
2023/12/05 00:26:09;;;;;;;8.25;4.30;;;1.60;99.90;;;0.57;100.00;96031.59;4990244;28;20034;-39
2023/12/05 00:28:35;;;;;;;8.20;4.38;;;1.60;99.90;;;0.61;100.00;96039.31;4988123;28;20041;-39
2023/12/05 00:31:01;;;;;;;6.45;3.70;;;1.60;99.90;;;0.64;100.00;96042.69;4992583;28;20037;-39
2023/12/05 00:33:26;;;;;;;5.47;3.65;;;1.60;99.90;;;0.65;100.00;96044.41;4991956;28;20456;-40
2023/12/05 00:35:52;;;;;;;7.78;4.45;;;1.60;99.90;;;0.57;100.00;96049.78;4989945;28;20049;-39
2023/12/05 00:38:18;;;;;;;6.68;3.95;;;1.60;99.90;;;0.60;100.00;96051.44;4976544;28;20111;-39
2023/12/05 00:40:43;;;;;;;6.43;3.92;;;1.60;99.90;;;0.60;100.00;96053.19;4992409;28;20175;-39
2023/12/05 00:43:09;;;;;;;9.00;4.10;;;1.60;99.90;;;0.60;100.00;96053.19;4992154;28;20417;-38
2023/12/05 00:45:35;;;;;;;7.93;4.40;;;1.60;99.90;;;0.57;100.00;96049.78;4990410;28;20045;-40
2023/12/05 00:48:00;;;;;;;6.25;2.90;;;1.60;99.90;;;0.60;100.00;96054.03;4994585;28;20037;-39
2023/12/05 00:50:26;;;;;;;6.38;3.33;;;1.60;99.90;;;0.60;100.00;96069.59;4989769;28;21050;-39
2023/12/05 00:52:52;;;;;;;4.43;2.65;;;1.60;99.90;;;0.62;100.00;96069.56;4992847;28;20038;-39
2023/12/05 00:55:17;;;;;;;8.63;3.20;;;1.60;99.90;;;0.59;100.00;96065.28;4993802;28;20065;-39
2023/12/05 00:57:43;;;;;;;5.68;3.20;;;1.60;99.90;;;0.59;100.00;96059.25;4991219;28;20091;-38
2023/12/05 01:00:13;;;;;;;5.43;3.03;;;1.60;99.90;;;0.64;100.00;96047.03;4991257;28;20080;-39
2023/12/05 01:02:39;;;;;;;5.70;3.20;;;1.60;99.90;;;0.65;100.00;96061.75;4993280;28;20162;-39
2023/12/05 01:05:08;;;;;;;4.65;2.60;;;1.60;99.90;;;0.66;100.00;96051.31;4994181;28;20450;-39
2023/12/05 01:07:35;;;;;;;5.60;2.85;;;1.60;99.90;;;0.62;100.00;96051.41;4987113;28;20061;-40
2023/12/05 01:10:02;;;;;;;3.80;2.70;;;1.60;99.90;;;0.66;100.00;96059.09;4991451;28;20461;-41
2023/12/05 01:12:27;;;;;;;4.28;2.10;;;1.60;99.90;;;0.53;100.00;96050.69;4992334;28;20034;-41
2023/12/05 01:14:53;;;;;;;5.07;2.72;;;1.70;99.90;;;0.72;100.00;96066.78;4989231;28;20049;-38
2023/12/05 01:17:19;;;;;;;3.42;2.17;;;1.70;99.90;;;0.79;100.00;96057.13;4991161;28;20045;-39
2023/12/05 01:19:44;;;;;;;3.13;1.80;;;1.70;99.90;;;0.78;100.00;96050.22;4994094;28;21297;-38
2023/12/05 01:22:10;;;;;;;3.63;2.15;;;1.70;99.90;;;0.84;100.00;96059.63;4995436;28;20037;-38
2023/12/05 01:24:36;;;;;;;3.60;2.20;;;1.80;99.90;;;0.88;100.00;96050.88;4994794;28;20502;-38
2023/12/05 01:27:03;;;;;;;3.22;2.17;;;1.80;99.90;;;0.98;100.00;96049.81;4986360;28;20039;-38
2023/12/05 01:29:29;;;;;;;2.88;2.00;;;1.90;99.90;;;1.01;100.00;96054.09;4989366;28;20026;-40
2023/12/05 01:31:54;;;;;;;3.72;2.10;;;2.00;99.90;;;1.08;100.00;96058.28;4991735;28;20033;-38
2023/12/05 01:34:20;;;;;;;4.35;2.38;;;2.00;99.90;;;1.13;100.00;96051.22;4993928;28;20478;-39
2023/12/05 01:36:46;;;;;;;3.83;2.28;;;2.10;99.90;;;1.14;100.00;96050.34;4991422;28;20494;-40
2023/12/05 01:39:14;;;;;;;4.00;2.40;;;2.10;99.90;;;1.14;100.00;96046.00;4994643;28;20026;-39
2023/12/05 01:41:40;;;;;;;3.30;2.35;;;2.20;99.90;;;1.25;100.00;96056.16;4991150;28;20041;-38
2023/12/05 01:44:06;;;;;;;3.47;2.40;;;2.20;99.90;;;1.32;100.00;96049.94;4995509;28;20029;-38
2023/12/05 01:46:32;;;;;;;3.53;2.22;;;2.30;99.90;;;1.35;100.00;96051.63;4992515;28;20030;-38
2023/12/05 01:48:58;;;;;;;4.00;2.40;;;2.30;99.90;;;1.32;100.00;96056.88;4995072;28;20121;-40
2023/12/05 01:51:25;;;;;;;3.35;2.30;;;2.30;99.90;;;1.28;100.00;96050.06;4993118;28;20068;-38
2023/12/05 01:53:52;;;;;;;3.70;2.03;;;2.30;99.90;;;1.32;100.00;96047.34;4977822;28;20037;-39
2023/12/05 01:56:18;;;;;;;3.78;2.15;;;2.30;99.90;;;1.34;100.00;96055.94;4989129;28;20045;-39
2023/12/05 01:58:45;;;;;;;3.03;1.95;;;2.40;99.90;;;1.35;100.00;96062.00;4990407;28;20038;-38
2023/12/05 02:01:15;;;;;;;4.60;2.70;;;2.30;99.90;;;1.26;100.00;96064.81;4992053;28;20050;-38
2023/12/05 02:03:43;;;;;;;3.90;2.30;;;2.20;99.90;;;1.20;100.00;96057.13;4991259;28;20038;-39
2023/12/05 02:06:10;;;;;;;5.78;2.55;;;2.20;99.90;;;1.14;100.00;96058.97;4993802;28;20037;-38
2023/12/05 02:08:37;;;;;;;4.35;2.50;;;2.10;99.90;;;1.03;100.00;96055.75;4989210;28;20037;-38
2023/12/05 02:11:02;;;;;;;4.35;2.28;;;2.10;99.90;;;1.02;100.00;96053.19;4981367;28;20077;-36
2023/12/05 02:13:28;;;;;;;3.20;2.05;;;2.00;99.90;;;0.93;100.00;96062.03;4991097;28;20275;-36
2023/12/05 02:16:40;;;;;;;5.35;2.30;;;1.90;99.90;;;0.83;100.00;96057.91;4993863;28;20104;-37
2023/12/05 02:19:45;;;;;;;3.08;2.00;;;1.80;99.90;;;0.71;100.00;96064.19;4992667;28;20026;-36
2023/12/05 02:22:44;;;;;;;4.50;2.47;;;1.70;99.90;;;0.59;100.00;96059.25;4992796;28;20043;-36
2023/12/05 02:25:53;;;;;;;3.78;2.28;;;1.60;99.90;;;0.28;100.00;96036.47;4996837;28;20157;-37
2023/12/05 02:28:20;;;;;;;4.85;2.60;;;1.50;99.90;;;0.42;100.00;96063.00;4993785;28;20071;-37
2023/12/05 02:30:45;;;;;;;3.90;2.40;;;1.40;99.90;;;0.37;100.00;96060.50;4991297;28;20068;-37
2023/12/05 02:33:11;;;;;;;3.53;2.55;;;1.30;99.90;;;0.37;100.00;96057.03;4997940;28;20034;-38
2023/12/05 02:35:37;;;;;;;3.65;2.50;;;1.30;99.90;;;0.32;100.00;96058.88;4993827;28;20557;-37
2023/12/05 02:38:27;;;;;;;3.85;2.70;;;1.30;99.90;;;0.21;100.00;96053.88;4993293;28;20092;-37
2023/12/05 02:41:13;;;;;;;3.72;2.30;;;1.20;99.90;;;0.15;100.00;96065.22;4978916;28;20053;-37
2023/12/05 02:43:49;;;;;;;3.72;2.47;;;1.20;99.90;;;0.10;100.00;96074.81;4996601;28;20188;-38
2023/12/05 02:46:17;;;;;;;3.67;2.50;;;1.10;99.90;;;0.08;100.00;96076.56;4991574;28;20022;-37
2023/12/05 02:48:44;;;;;;;3.50;2.40;;;1.10;99.90;;;0.13;100.00;96085.13;4991451;28;20502;-39
2023/12/05 02:51:11;;;;;;;3.97;2.50;;;1.10;99.90;;;0.12;100.00;96086.00;4980417;28;20104;-37
2023/12/05 02:53:37;;;;;;;5.70;3.00;;;1.10;99.90;;;-0.02;100.00;96056.84;4993019;28;20026;-37
2023/12/05 02:56:04;;;;;;;4.50;2.70;;;1.10;99.90;;;0.11;100.00;96078.28;4997452;28;20112;-37
2023/12/05 02:58:30;;;;;;;3.88;2.38;;;1.10;99.90;;;0.08;100.00;96084.34;4995211;28;20034;-37
2023/12/05 03:00:55;;;;;;;4.32;2.65;;;1.10;99.90;;;0.07;100.00;96089.56;4968236;28;20888;-39
2023/12/05 03:03:21;;;;;;;4.53;2.72;;;1.10;99.90;;;0.04;100.00;96081.84;4993351;28;20049;-38
2023/12/05 03:05:47;;;;;;;5.85;2.53;;;1.10;99.90;;;0.07;100.00;96089.56;4996142;28;20173;-38
2023/12/05 03:08:12;;;;;;;3.97;2.60;;;1.10;99.90;;;0.04;100.00;96089.63;4995710;28;20030;-38
2023/12/05 03:10:38;;;;;;;4.07;2.58;;;1.00;99.90;;;0.07;100.00;96094.72;4992890;28;20529;-37
2023/12/05 03:13:03;;;;;;;4.57;2.70;;;1.00;99.90;;;0.06;100.00;96093.88;4995323;28;20030;-38
2023/12/05 03:15:29;;;;;;;4.35;2.53;;;1.10;99.90;;;0.05;100.00;96099.94;4974360;28;20041;-37
2023/12/05 03:17:55;;;;;;;4.97;2.92;;;1.10;99.90;;;0.00;100.00;96091.41;4990132;28;20402;-42
2023/12/05 03:20:21;;;;;;;4.57;2.97;;;1.00;99.90;;;-0.10;100.00;96090.69;4991829;28;20026;-39
2023/12/05 03:22:46;;;;;;;5.80;3.00;;;1.00;99.90;;;-0.09;100.00;96096.72;4992211;28;20589;-38
2023/12/05 03:25:12;;;;;;;3.65;2.50;;;0.90;99.90;;;-0.10;100.00;96089.84;4996776;28;20457;-39
2023/12/05 03:27:38;;;;;;;5.47;2.70;;;0.90;99.90;;;-0.11;100.00;96098.47;4994041;28;20069;-39
2023/12/05 03:30:04;;;;;;;4.40;2.80;;;0.90;99.90;;;-0.07;100.00;96098.41;4992576;28;20033;-37
2023/12/05 03:32:29;;;;;;;5.50;2.40;;;0.90;99.90;;;-0.06;100.00;96097.53;4995763;28;20030;-37
2023/12/05 03:34:55;;;;;;;4.40;2.63;;;0.90;99.90;;;0.04;100.00;96103.44;4992357;28;20038;-38
2023/12/05 03:37:21;;;;;;;5.75;2.67;;;1.10;99.90;;;0.17;100.00;96097.16;4997233;28;20386;-39
2023/12/05 03:39:46;;;;;;;5.15;2.72;;;1.10;99.90;;;0.25;100.00;96093.56;4989070;28;20037;-37
2023/12/05 03:42:12;;;;;;;4.40;2.80;;;1.20;99.90;;;0.37;100.00;96103.72;4996086;28;20382;-42
2023/12/05 03:44:38;;;;;;;4.43;2.60;;;1.30;99.90;;;0.48;100.00;96096.59;4973598;28;20034;-41
2023/12/05 03:47:04;;;;;;;5.57;2.92;;;1.40;99.90;;;0.52;100.00;96098.28;4995702;28;20113;-39
2023/12/05 03:49:29;;;;;;;4.07;2.55;;;1.50;99.90;;;0.49;100.00;96094.88;4994435;28;20375;-38
2023/12/05 03:51:55;;;;;;;4.85;2.60;;;1.50;99.90;;;0.42;100.00;96088.94;4992986;28;20045;-38
2023/12/05 03:54:21;;;;;;;3.83;2.55;;;1.40;99.90;;;0.31;100.00;96101.25;4994709;28;20509;-38
2023/12/05 03:56:46;;;;;;;4.05;2.47;;;1.30;99.90;;;0.18;100.00;96100.63;4991149;28;20029;-38
2023/12/05 03:59:12;;;;;;;5.47;3.10;;;1.20;99.90;;;0.09;100.00;96099.03;4977684;28;21154;-38
2023/12/05 04:01:38;;;;;;;4.32;2.70;;;1.10;99.90;;;0.06;100.00;96100.81;4984566;28;20121;-40
2023/12/05 04:04:04;;;;;;;4.38;2.70;;;1.10;99.90;;;0.08;100.00;96105.09;4994439;28;20038;-38
2023/12/05 04:06:29;;;;;;;3.60;2.40;;;1.10;99.90;;;0.06;100.00;96106.84;4993482;28;20099;-38
2023/12/05 04:08:55;;;;;;;4.18;2.20;;;1.10;99.90;;;0.03;100.00;96106.03;4991380;28;21177;-39
2023/12/05 04:11:32;;;;;;;4.93;2.50;;;1.10;99.90;;;0.06;100.00;96099.06;4995978;28;20034;-38
2023/12/05 04:13:58;;;;;;;4.82;2.90;;;1.10;99.90;;;0.06;100.00;96099.06;4978485;28;20041;-37
2023/12/05 04:16:26;;;;;;;4.00;2.58;;;1.10;99.90;;;0.17;100.00;96115.28;4991843;28;20512;-38
2023/12/05 04:18:52;;;;;;;4.13;2.60;;;1.10;99.90;;;0.13;100.00;96108.47;4986749;28;20177;-37
2023/12/05 04:21:18;;;;;;;4.53;2.33;;;1.20;99.90;;;0.24;100.00;96120.41;4995646;28;20042;-38
2023/12/05 04:23:45;;;;;;;4.88;2.30;;;1.20;99.90;;;0.23;100.00;96116.06;4990584;28;20646;-39
2023/12/05 04:26:19;;;;;;;5.28;2.20;;;1.20;99.90;;;0.23;100.00;96113.50;4995317;28;20486;-40
2023/12/05 04:28:45;;;;;;;4.38;2.25;;;1.20;99.90;;;0.23;100.00;96110.91;4991577;28;20034;-41
2023/12/05 04:31:12;;;;;;;5.53;2.50;;;1.20;99.90;;;0.30;100.00;96120.28;4992090;28;20125;-37
2023/12/05 04:33:41;;;;;;;3.67;2.38;;;1.20;99.90;;;0.32;100.00;96121.09;4994548;28;20038;-38
2023/12/05 04:36:07;;;;;;;5.15;2.42;;;1.30;99.90;;;0.40;100.00;96113.22;4997646;28;20041;-37
2023/12/05 04:38:38;;;;;;;5.20;2.47;;;1.40;99.90;;;0.53;100.00;96112.94;4995805;28;20068;-38
2023/12/05 04:41:04;;;;;;;5.55;2.70;;;1.50;99.90;;;0.73;100.00;96119.50;4994874;28;20061;-39
2023/12/05 04:43:30;;;;;;;4.07;2.50;;;1.60;99.90;;;0.84;100.00;96114.97;4990203;28;20030;-38
2023/12/05 04:45:57;;;;;;;4.63;2.63;;;1.70;99.90;;;0.85;100.00;96121.03;4987809;28;22683;-38
2023/12/05 04:48:22;;;;;;;8.13;2.90;;;1.80;99.90;;;0.98;100.00;96124.25;4996654;28;20540;-38
2023/12/05 04:50:48;;;;;;;3.65;2.38;;;1.90;99.90;;;0.92;100.00;96110.50;4992421;28;20037;-38
2023/12/05 04:53:14;;;;;;;4.15;2.35;;;1.90;99.90;;;0.91;100.00;96115.72;4994440;28;20049;-38
2023/12/05 04:55:40;;;;;;;4.57;2.40;;;1.90;99.90;;;0.93;100.00;96112.22;4993710;28;20065;-40
2023/12/05 04:58:05;;;;;;;4.60;2.03;;;1.80;99.90;;;0.89;100.00;96115.75;4994354;28;20538;-38
2023/12/05 05:00:34;;;;;;;3.97;2.10;;;1.90;99.90;;;0.90;100.00;96114.88;4989772;28;20129;-38
2023/12/05 05:02:59;;;;;;;4.13;2.45;;;1.80;99.90;;;0.83;100.00;96108.09;4992885;28;20034;-38
2023/12/05 05:05:25;;;;;;;4.95;2.33;;;1.80;99.90;;;0.87;100.00;96117.50;4993613;28;20037;-37
2023/12/05 05:07:50;;;;;;;7.93;3.83;;;1.80;99.90;;;0.90;100.00;96104.47;4990378;28;20951;-38
2023/12/05 05:10:16;;;;;;;3.92;2.17;;;1.80;99.90;;;0.95;100.00;96105.25;4991110;28;20045;-38
2023/12/05 05:12:42;;;;;;;4.05;2.10;;;1.80;99.90;;;0.91;100.00;96107.91;4991773;28;20040;-37
2023/12/05 05:15:09;;;;;;;3.25;2.00;;;1.80;99.90;;;0.98;100.00;96117.31;4990500;28;20038;-38
2023/12/05 05:17:34;;;;;;;4.57;2.03;;;1.90;99.90;;;1.08;100.00;96108.44;4984548;28;20495;-38
2023/12/05 05:20:00;;;;;;;3.97;1.98;;;2.00;99.90;;;1.07;100.00;96108.47;4991451;28;20068;-39
2023/12/05 05:22:26;;;;;;;7.65;1.95;;;2.00;99.90;;;1.09;100.00;96107.53;4986889;28;20092;-39
2023/12/05 05:24:52;;;;;;;3.55;1.48;;;2.10;99.90;;;1.16;100.00;96110.88;4990915;28;20152;-38
2023/12/05 05:27:17;;;;;;;4.22;1.75;;;2.10;99.90;;;1.15;100.00;96116.97;4990855;28;20048;-39
2023/12/05 05:29:43;;;;;;;2.88;1.60;;;2.10;99.90;;;1.20;100.00;96115.13;4992121;28;20046;-39
2023/12/05 05:32:09;;;;;;;5.53;1.85;;;2.10;99.90;;;1.22;100.00;96102.09;4990330;28;20353;-39
2023/12/05 05:34:35;;;;;;;3.97;1.45;;;2.10;99.90;;;1.27;100.00;96110.66;4994264;28;20391;-39
2023/12/05 05:37:01;;;;;;;5.03;1.80;;;2.20;99.90;;;1.38;100.00;96110.44;4989956;28;20041;-41
2023/12/05 05:39:26;;;;;;;2.67;1.38;;;2.20;99.90;;;1.26;100.00;96106.38;4990737;28;20052;-38
2023/12/05 05:41:52;;;;;;;4.20;1.88;;;2.20;99.90;;;1.32;100.00;96109.66;4987340;28;20038;-38
2023/12/05 05:44:18;;;;;;;1.40;1.13;;;2.20;99.90;;;1.39;100.00;96104.38;4990638;28;20136;-39
2023/12/05 05:46:44;;;;;;;2.58;1.02;;;2.20;99.90;;;1.38;100.00;96105.25;4990382;28;20022;-37
2023/12/05 05:49:09;;;;;;;4.20;1.20;;;2.30;99.90;;;1.39;100.00;96110.41;4992218;28;20038;-37
2023/12/05 05:51:35;;;;;;;3.40;1.83;;;2.30;99.90;;;1.41;100.00;96107.78;4990110;28;20584;-37
2023/12/05 05:54:01;;;;;;;3.78;1.35;;;2.30;99.90;;;1.42;100.00;96114.66;4990708;28;20092;-37
2023/12/05 05:56:26;;;;;;;3.42;1.52;;;2.30;99.90;;;1.35;100.00;96119.16;4992881;28;20583;-37
2023/12/05 05:58:52;;;;;;;6.30;1.38;;;2.20;99.90;;;1.34;100.00;96110.50;4993699;28;20026;-37
2023/12/05 06:01:18;;;;;;;4.32;1.70;;;2.20;99.90;;;1.28;100.00;96120.19;4990527;28;20033;-37
2023/12/05 06:03:44;;;;;;;3.60;1.73;;;2.20;99.90;;;1.29;100.00;96114.06;4994451;28;20033;-37
2023/12/05 06:06:10;;;;;;;4.57;1.75;;;2.20;99.90;;;1.25;100.00;96113.28;4995641;28;20033;-37
2023/12/05 06:08:35;;;;;;;5.57;1.90;;;2.20;99.90;;;1.21;100.00;96101.25;4995049;28;20036;-38
2023/12/05 06:11:01;;;;;;;5.75;1.90;;;2.20;99.90;;;1.15;100.00;96101.41;4997284;28;20080;-37
2023/12/05 06:13:27;;;;;;;3.65;1.88;;;2.20;99.90;;;1.19;100.00;96112.56;4993378;28;20631;-38
2023/12/05 06:15:52;;;;;;;7.15;1.92;;;2.10;99.90;;;1.18;100.00;96103.91;4994152;28;20467;-37
2023/12/05 06:18:18;;;;;;;3.22;1.70;;;2.20;99.90;;;1.18;100.00;96096.13;4995224;28;20026;-37
2023/12/05 06:20:44;;;;;;;6.50;1.90;;;2.10;99.90;;;1.15;100.00;96111.78;4992833;28;20426;-37
2023/12/05 06:23:10;;;;;;;3.63;2.00;;;2.10;99.90;;;1.12;100.00;96117.03;4991445;28;20082;-37
2023/12/05 06:25:36;;;;;;;5.78;2.13;;;2.00;99.90;;;1.18;100.00;96119.50;4994681;28;20056;-37
2023/12/05 06:28:02;;;;;;;4.55;2.30;;;2.10;99.90;;;1.20;100.00;96119.47;4996758;28;20028;-37
2023/12/05 06:30:28;;;;;;;3.47;1.83;;;2.10;99.90;;;1.15;100.00;96116.97;4986844;28;20356;-37
2023/12/05 06:32:54;;;;;;;3.65;2.00;;;2.10;99.90;;;1.20;100.00;96128.09;4988106;28;20043;-37
2023/12/05 06:35:19;;;;;;;4.97;2.13;;;2.10;99.90;;;1.20;100.00;96141.09;4995720;28;20455;-37
2023/12/05 06:37:45;;;;;;;10.25;2.10;;;2.10;99.90;;;1.16;100.00;96141.19;4997109;28;20443;-37
2023/12/05 06:40:11;;;;;;;3.83;1.65;;;2.10;99.90;;;1.14;100.00;96136.03;4999268;28;20042;-37
2023/12/05 06:42:38;;;;;;;2.67;1.60;;;2.10;99.90;;;1.18;100.00;96144.63;4997158;28;20088;-37
2023/12/05 06:45:04;;;;;;;4.30;1.60;;;2.10;99.90;;;1.16;100.00;96142.03;4993276;28;20094;-37
2023/12/05 06:47:31;;;;;;;4.15;1.92;;;2.10;99.90;;;1.12;100.00;96143.00;4998490;28;20127;-36
2023/12/05 06:50:01;;;;;;;3.38;1.75;;;2.00;99.90;;;1.10;100.00;96139.59;5021353;23;20100;-36
2023/12/05 06:52:27;;;;;;;6.28;2.08;;;2.00;99.90;;;1.06;100.00;96140.50;5018791;28;20026;-36
2023/12/05 06:54:52;;;;;;;5.18;1.80;;;2.00;99.90;;;0.97;100.00;96131.19;5016631;28;20038;-35
2023/12/05 06:57:18;;;;;;;4.47;2.20;;;2.00;99.90;;;1.12;100.00;96135.22;5016895;28;20037;-36
2023/12/05 06:59:44;;;;;;;4.07;1.67;;;2.00;99.90;;;1.15;100.00;96140.34;5015859;28;20396;-36
2023/12/05 07:02:10;;;;;;;4.50;2.05;;;2.00;99.90;;;1.13;100.00;96142.97;5018079;28;20044;-36
2023/12/05 07:04:35;;;;;;;3.53;1.77;;;2.00;99.90;;;1.16;100.00;96149.00;5017370;28;20033;-36
2023/12/05 07:07:01;;;;;;;9.45;1.90;;;2.10;99.90;;;1.20;100.00;96154.06;5015495;28;20030;-36
2023/12/05 07:09:27;;;;;;;5.32;1.70;;;2.10;99.90;;;1.21;100.00;96149.75;5018365;28;20050;-35
2023/12/05 07:11:53;;;;;;;7.07;2.65;;;2.10;99.90;;;1.26;100.00;96153.13;5016658;28;20375;-35
2023/12/05 07:14:18;;;;;;;7.15;1.90;;;2.10;99.90;;;1.20;100.00;96161.88;5014070;28;20466;-35
2023/12/05 07:16:45;;;;;;;5.43;1.95;;;2.10;99.90;;;1.20;100.00;96161.88;5018113;28;20562;-35
2023/12/05 07:19:11;;;;;;;5.90;1.48;;;2.10;99.90;;;1.17;100.00;96171.44;5016044;28;21814;-35
2023/12/05 07:21:36;;;;;;;9.15;1.90;;;2.10;99.90;;;1.14;100.00;96182.78;5016748;28;20131;-35
2023/12/05 07:24:02;;;;;;;3.75;1.70;;;2.10;99.90;;;0.90;100.00;96152.94;5018736;28;20022;-35
2023/12/05 07:26:28;;;;;;;5.00;1.83;;;2.10;99.90;;;1.10;100.00;96178.53;5016769;28;20059;-35
2023/12/05 07:28:53;;;;;;;3.22;1.67;;;2.00;99.90;;;1.08;100.00;96185.50;5011612;28;20080;-36
2023/12/05 07:31:20;;;;;;;5.18;2.22;;;2.00;99.90;;;1.10;100.00;96184.56;5016266;28;20053;-36
2023/12/05 07:33:46;;;;;;;4.18;1.85;;;2.00;99.90;;;1.11;100.00;96193.22;5014281;28;20091;-36
2023/12/05 07:36:13;;;;;;;4.32;1.70;;;2.10;99.90;;;1.18;100.00;96188.75;5016099;28;20049;-36
2023/12/05 07:38:38;;;;;;;3.78;1.45;;;2.00;99.90;;;1.23;100.00;96198.16;5018239;28;20033;-36
2023/12/05 07:41:04;;;;;;;4.32;1.40;;;2.10;99.90;;;1.29;100.00;96192.88;5015619;28;20517;-36
2023/12/05 07:43:30;;;;;;;2.67;1.50;;;2.20;99.90;;;1.29;100.00;96184.19;5013213;28;20029;-36
2023/12/05 07:45:56;;;;;;;3.25;1.70;;;2.20;99.90;;;1.36;100.00;96195.34;5007845;28;20095;-36
2023/12/05 07:48:22;;;;;;;3.33;1.42;;;2.30;99.90;;;1.48;100.00;96195.94;5015280;28;20033;-36
2023/12/05 07:50:47;;;;;;;2.83;1.40;;;2.30;99.90;;;1.56;100.00;96203.56;5016627;28;20033;-36
2023/12/05 07:53:14;;;;;;;2.88;1.70;;;2.40;99.90;;;1.61;100.00;96204.34;5014896;28;20045;-36
2023/12/05 07:55:40;;;;;;;4.60;1.48;;;2.40;99.90;;;1.64;100.00;96200.84;5019317;28;20037;-36
2023/12/05 07:58:05;;;;;;;7.47;1.80;;;2.50;99.90;;;1.67;100.00;96214.63;5009261;28;20091;-36
2023/12/05 08:00:31;;;;;;;5.00;1.77;;;2.60;99.90;;;1.72;100.00;96209.31;4999149;28;20029;-36
2023/12/05 08:02:57;;;;;;;2.22;1.15;;;2.60;99.90;;;1.76;100.00;96195.38;5011094;28;20393;-36
2023/12/05 08:05:23;;;;;;;2.78;1.45;;;2.60;99.90;;;1.79;100.00;96208.28;5016252;28;20260;-36
2023/12/05 08:07:49;;;;;;;3.33;1.27;;;2.70;99.90;;;1.78;100.00;96211.78;5012181;28;20033;-36
2023/12/05 08:10:15;;;;;;;2.13;1.20;;;2.70;99.90;;;1.83;100.00;96209.94;5015701;28;20033;-36
2023/12/05 08:12:40;;;;;;;2.78;1.40;;;2.70;99.90;;;1.91;100.00;96223.63;5011021;28;20076;-36
2023/12/05 08:15:07;;;;;;;2.33;1.27;;;2.80;99.90;;;1.90;100.00;96221.94;5009501;28;20357;-36
2023/12/05 08:17:33;;;;;;;4.15;1.10;;;2.80;99.90;;;1.91;100.00;96209.78;5015039;28;20025;-36
2023/12/05 08:19:58;;;;;;;4.50;1.30;;;2.90;99.90;;;2.08;100.00;96206.78;5016386;28;20025;-36
2023/12/05 08:22:25;;;;;;;5.60;1.52;;;3.00;99.90;;;2.32;100.00;96210.59;4997211;28;20580;-36
2023/12/05 08:24:51;;;;;;;5.32;1.42;;;3.20;99.90;;;2.48;100.00;96211.94;5015349;28;20033;-36
2023/12/05 08:27:16;;;;;;;2.20;1.20;;;3.40;99.90;;;2.62;100.00;96202.94;5011175;28;20087;-36
2023/12/05 08:29:42;;;;;;;4.35;1.25;;;3.50;99.90;;;2.80;100.00;96206.81;5015816;28;20417;-36
2023/12/05 08:32:09;;;;;;;3.08;1.35;;;3.70;99.90;;;2.92;100.00;96205.66;5013592;28;20490;-36
2023/12/05 08:34:34;;;;;;;3.72;1.38;;;3.80;99.90;;;3.05;100.00;96188.81;5014411;28;20144;-36
2023/12/05 08:37:01;;;;;;;3.95;1.50;;;4.00;99.90;;;3.16;100.00;96198.94;5011299;28;20559;-36
2023/12/05 08:39:26;;;;;;;2.70;1.20;;;4.10;99.90;;;3.19;100.00;96199.72;5014015;28;20409;-36
2023/12/05 08:41:52;;;;;;;2.08;0.93;;;4.10;99.90;;;3.20;100.00;96206.63;5014595;28;20489;-36
2023/12/05 08:44:21;;;;;;;2.10;1.30;;;4.10;99.90;;;3.14;100.00;96203.34;5014863;28;20029;-34
2023/12/05 08:46:47;;;;;;;3.53;1.10;;;4.10;99.90;;;3.12;100.00;96215.56;5014483;28;20108;-35
2023/12/05 08:49:16;;;;;;;4.70;1.10;;;4.10;99.90;;;3.10;100.00;96215.59;5013057;28;20066;-35
2023/12/05 08:51:42;;;;;;;1.90;0.90;;;4.00;99.90;;;3.00;100.00;96214.16;5010376;28;20057;-35
2023/12/05 08:54:07;;;;;;;8.88;1.20;;;4.00;99.90;;;3.02;100.00;96231.44;5011239;28;20147;-36
2023/12/05 08:56:33;;;;;;;4.22;1.20;;;3.90;99.90;;;3.00;100.00;96238.44;5013796;28;20474;-36
2023/12/05 08:58:59;;;;;;;2.50;1.00;;;3.90;99.90;;;3.04;100.00;96239.19;5011748;28;20029;-36
2023/12/05 09:01:25;;;;;;;2.17;1.02;;;4.00;99.90;;;3.07;100.00;96236.53;5013934;28;20477;-36
2023/12/05 09:03:51;;;;;;;4.45;1.00;;;4.00;99.90;;;2.99;100.00;96228.88;5008331;28;20033;-36
2023/12/05 09:06:16;;;;;;;3.03;0.93;;;4.00;99.90;;;3.08;100.00;96227.81;5015144;28;20040;-36
2023/12/05 09:08:42;;;;;;;5.28;1.02;;;4.00;99.90;;;3.13;100.00;96240.72;5011149;28;20059;-36
2023/12/05 09:11:08;;;;;;;2.85;1.10;;;4.00;99.90;;;3.15;100.00;96251.94;5012349;28;20041;-36
2023/12/05 09:13:34;;;;;;;2.03;0.98;;;4.00;99.90;;;3.13;100.00;96245.94;5014905;28;20021;-36
2023/12/05 09:16:00;;;;;;;3.50;0.80;;;4.00;99.90;;;3.16;100.00;96251.03;5010512;28;20029;-37
2023/12/05 09:18:26;;;;;;;2.65;0.90;;;4.10;99.90;;;3.18;100.00;96244.06;5011631;28;20204;-36
2023/12/05 09:20:51;;;;;;;2.90;0.82;;;4.10;99.90;;;3.14;100.00;96245.91;5013769;28;20037;-36
2023/12/05 09:23:17;;;;;;;3.38;1.30;;;4.10;99.90;;;3.14;100.00;96258.03;5016412;28;20459;-36
2023/12/05 09:25:43;;;;;;;4.65;0.88;;;4.10;99.90;;;3.24;100.00;96267.34;5011734;28;20486;-36
2023/12/05 09:28:09;;;;;;;2.67;0.88;;;4.10;99.90;;;3.24;100.00;96270.78;5009537;28;20030;-36
2023/12/05 09:30:34;;;;;;;1.55;0.68;;;4.10;99.90;;;3.25;100.00;96262.09;5014611;28;20040;-36
2023/12/05 09:33:01;;;;;;;4.18;0.85;;;4.20;99.90;;;3.34;100.00;96262.72;5013085;28;20517;-35
2023/12/05 09:35:27;;;;;;;3.03;1.00;;;4.20;99.90;;;3.31;100.00;96255.00;5016088;28;20170;-35
2023/12/05 09:37:53;;;;;;;4.40;1.10;;;4.20;99.90;;;3.35;100.00;96269.66;5011965;28;20486;-35
2023/12/05 09:40:19;;;;;;;3.05;0.95;;;4.20;99.90;;;3.38;100.00;96270.44;5011262;28;20497;-35
2023/12/05 09:42:48;;;;;;;2.92;1.20;;;4.30;99.90;;;3.41;100.00;96275.56;4995549;28;20024;-35
2023/12/05 09:45:15;;;;;;;1.73;0.95;;;4.30;99.90;;;3.38;100.00;96261.78;4991931;28;20120;-35
2023/12/05 09:47:46;;;;;;;4.63;0.85;;;4.30;99.90;;;3.51;100.00;96272.72;5010833;28;20513;-35
2023/12/05 09:50:12;;;;;;;0.85;0.57;;;4.40;99.90;;;3.54;100.00;96270.88;4995988;28;20048;-35
2023/12/05 09:52:37;;;;;;;1.73;0.68;;;4.40;99.90;;;3.55;100.00;96271.72;5012311;28;20037;-35
2023/12/05 09:55:05;;;;;;;2.25;0.73;;;4.40;99.90;;;3.59;100.00;96263.78;5008951;28;20041;-35
2023/12/05 09:57:30;;;;;;;5.80;0.90;;;4.50;99.90;;;3.53;100.00;96268.31;5009553;28;20033;-35
2023/12/05 09:59:56;;;;;;;3.63;1.25;;;4.50;99.90;;;3.59;100.00;96269.00;5004211;28;20036;-35
2023/12/05 10:02:24;;;;;;;1.83;0.80;;;4.50;99.90;;;3.61;100.00;96272.44;5012257;28;20040;-35
2023/12/05 10:04:59;;;;;;;2.78;1.00;;;4.50;99.90;;;3.63;100.00;96269.78;5015077;28;20021;-36
2023/12/05 10:07:27;;;;;;;2.08;0.80;;;4.50;99.90;;;3.70;100.00;96281.75;5011880;28;21737;-36
2023/12/05 10:09:55;;;;;;;1.67;0.88;;;4.60;99.90;;;3.77;100.00;96269.41;5014984;28;20045;-36
2023/12/05 10:12:20;;;;;;;3.25;0.90;;;4.60;99.90;;;3.79;100.00;96252.81;5011931;28;20144;-36
2023/12/05 10:14:46;;;;;;;1.90;0.82;;;4.60;99.90;;;3.88;100.00;96254.28;4996264;28;20379;-36
2023/12/05 10:17:12;;;;;;;1.80;1.00;;;4.70;99.90;;;3.90;100.00;96247.28;5014024;28;20088;-36
2023/12/05 10:19:38;;;;;;;1.38;0.57;;;4.80;99.90;;;4.04;100.00;96253.84;5009589;28;20061;-36
2023/12/05 10:22:04;;;;;;;2.53;0.80;;;4.90;99.90;;;4.14;100.00;96245.69;5008475;28;20026;-36
2023/12/05 10:24:43;;;;;;;2.38;0.88;;;5.00;99.90;;;4.23;100.00;96239.34;5014343;28;20035;-36